Time;durP1;ratioP1;P1;durP2;ratioP2;P2;SDS_P1;SDS_P2;PMS_P1;PMS_P2;Temp;Humidity;BMP_temperature;BMP_pressure;BME280_temperature;BME280_humidity;BME280_pressure;Samples;Min_cycle;Max_cycle;Signal;HPM_P1;HPM_P2
2023/06/30 00:02:47;;;;;;;;;;;16.80;99.90;;;;;;8421679;28;19931;-72
2023/06/30 00:06:51;;;;;;;;;;;16.80;99.90;;;;;;8422515;28;19928;-73
2023/06/30 00:10:53;;;;;;;;;;;16.70;99.90;;;;;;8415121;28;20352;-72
2023/06/30 00:14:55;;;;;;;;;;;16.70;99.90;;;;;;8423919;28;19925;-72
2023/06/30 00:18:57;;;;;;;;;;;16.60;99.90;;;;;;8405467;28;19924;-72
2023/06/30 00:22:58;;;;;;;;;;;16.60;99.90;;;;;;8417975;28;19970;-72
2023/06/30 00:27:00;;;;;;;;;;;16.50;99.90;;;;;;8421737;28;20301;-72
2023/06/30 00:31:02;;;;;;;;;;;16.40;99.90;;;;;;8417146;28;19989;-73
2023/06/30 00:35:04;;;;;;;;;;;16.40;99.90;;;;;;8400536;28;19982;-72
2023/06/30 00:39:05;;;;;;;;;;;16.30;99.90;;;;;;8424731;28;20445;-72
2023/06/30 00:43:07;;;;;;;;;;;16.30;99.90;;;;;;8421088;28;19935;-73
2023/06/30 00:47:09;;;;;;;;;;;16.30;99.90;;;;;;8429743;28;19936;-73
2023/06/30 00:51:11;;;;;;;;;;;16.30;99.90;;;;;;8416985;28;19930;-72
2023/06/30 00:55:14;;;;;;;;;;;16.30;99.90;;;;;;8404782;28;19924;-72
2023/06/30 00:59:16;;;;;;;;;;;16.20;99.90;;;;;;8418968;28;19924;-73
2023/06/30 01:03:39;;;;;;;;;;;16.10;99.90;;;;;;8429837;28;19924;-72
2023/06/30 01:07:44;;;;;;;;;;;16.20;99.90;;;;;;8430190;28;19931;-72
2023/06/30 01:11:46;;;;;;;;;;;16.10;99.90;;;;;;8412233;28;20418;-73
2023/06/30 01:15:48;;;;;;;;;;;16.10;99.90;;;;;;8416873;28;19931;-72
2023/06/30 01:19:53;;;;;;;;;;;16.00;99.90;;;;;;8412294;28;19924;-72
2023/06/30 01:23:57;;;;;;;;;;;16.00;99.90;;;;;;8416448;28;19985;-72
2023/06/30 01:27:59;;;;;;;;;;;15.90;99.90;;;;;;8418249;28;19940;-72
2023/06/30 01:32:01;;;;;;;;;;;15.90;99.90;;;;;;8418279;28;19924;-72
2023/06/30 01:36:02;;;;;;;;;;;15.90;99.90;;;;;;8415791;28;20372;-72
2023/06/30 01:40:05;;;;;;;;;;;15.80;99.90;;;;;;8391175;28;20295;-72
2023/06/30 01:44:07;;;;;;;;;;;15.70;99.90;;;;;;8407437;28;20014;-72
2023/06/30 01:48:09;;;;;;;;;;;15.60;99.90;;;;;;8412491;28;19924;-72
2023/06/30 01:52:11;;;;;;;;;;;15.50;99.90;;;;;;8407841;28;19924;-72
2023/06/30 01:56:12;;;;;;;;;;;15.50;99.90;;;;;;8430482;27;19935;-72
2023/06/30 02:00:14;;;;;;;;;;;15.40;99.90;;;;;;8410228;28;19935;-72
2023/06/30 02:04:16;;;;;;;;;;;15.30;99.90;;;;;;8410792;28;19931;-72
2023/06/30 02:08:18;;;;;;;;;;;15.30;99.90;;;;;;8408940;28;19981;-72
2023/06/30 02:12:19;;;;;;;;;;;15.20;99.90;;;;;;8411514;28;19924;-72
2023/06/30 02:16:21;;;;;;;;;;;15.10;99.90;;;;;;8412470;28;20007;-72
2023/06/30 02:20:23;;;;;;;;;;;15.10;99.90;;;;;;8397063;28;19928;-73
2023/06/30 02:24:24;;;;;;;;;;;15.00;99.90;;;;;;8414064;28;19924;-72
2023/06/30 02:28:26;;;;;;;;;;;15.00;99.90;;;;;;8416024;28;19931;-72
2023/06/30 02:32:28;;;;;;;;;;;15.00;99.90;;;;;;8425513;27;19928;-72
2023/06/30 02:36:29;;;;;;;;;;;14.90;99.90;;;;;;8397323;28;20273;-73
2023/06/30 02:40:31;;;;;;;;;;;14.90;99.90;;;;;;8428620;28;20379;-72
2023/06/30 02:44:33;;;;;;;;;;;14.90;99.90;;;;;;8401639;28;19932;-72
2023/06/30 02:48:35;;;;;;;;;;;14.80;99.90;;;;;;8405371;28;19924;-72
2023/06/30 02:52:36;;;;;;;;;;;14.80;99.90;;;;;;8412290;28;19977;-72
2023/06/30 02:56:38;;;;;;;;;;;14.70;99.90;;;;;;8420778;28;20299;-72
2023/06/30 03:00:40;;;;;;;;;;;14.70;99.90;;;;;;8408238;28;19928;-72
2023/06/30 03:04:41;;;;;;;;;;;14.60;99.90;;;;;;8393652;28;19966;-72
2023/06/30 03:08:43;;;;;;;;;;;14.50;99.90;;;;;;8436924;28;19970;-73
2023/06/30 03:12:45;;;;;;;;;;;14.50;99.90;;;;;;8406537;28;19947;-72
2023/06/30 03:16:46;;;;;;;;;;;14.40;99.90;;;;;;8393341;28;19932;-72
2023/06/30 03:20:48;;;;;;;;;;;14.40;99.90;;;;;;8409076;28;20414;-72
2023/06/30 03:24:50;;;;;;;;;;;14.30;99.90;;;;;;8400172;28;20426;-72
2023/06/30 03:28:51;;;;;;;;;;;14.30;99.90;;;;;;8410602;28;20398;-72
2023/06/30 03:32:53;;;;;;;;;;;14.20;99.90;;;;;;8418730;28;19932;-72
2023/06/30 03:36:55;;;;;;;;;;;14.20;99.90;;;;;;8411549;28;19933;-72
2023/06/30 03:40:56;;;;;;;;;;;14.10;99.90;;;;;;8411708;28;20445;-72
2023/06/30 03:45:00;;;;;;;;;;;14.10;99.90;;;;;;8426093;28;19924;-73
2023/06/30 03:49:01;;;;;;;;;;;14.10;99.90;;;;;;8418782;28;19967;-72
2023/06/30 03:53:03;;;;;;;;;;;14.00;99.90;;;;;;8436123;28;19932;-74
2023/06/30 03:57:04;;;;;;;;;;;14.00;99.90;;;;;;8436012;28;19931;-73
2023/06/30 04:01:06;;;;;;;;;;;14.00;99.90;;;;;;8425613;28;19924;-72
2023/06/30 04:05:08;;;;;;;;;;;14.00;99.90;;;;;;8432291;27;19924;-72
2023/06/30 04:09:10;;;;;;;;;;;14.00;99.90;;;;;;8413673;28;20380;-72
2023/06/30 04:13:11;;;;;;;;;;;14.00;99.90;;;;;;8421434;27;19928;-72
2023/06/30 04:17:13;;;;;;;;;;;14.10;99.90;;;;;;8387198;28;20583;-72
2023/06/30 04:21:17;;;;;;;;;;;14.10;99.90;;;;;;8416955;28;19977;-72
2023/06/30 04:25:18;;;;;;;;;;;14.10;99.90;;;;;;8409643;28;19924;-72
2023/06/30 04:29:20;;;;;;;;;;;14.20;99.90;;;;;;8399172;28;20252;-72
2023/06/30 04:33:21;;;;;;;;;;;14.20;99.90;;;;;;8414869;28;20010;-73
2023/06/30 04:37:23;;;;;;;;;;;14.30;99.90;;;;;;8401195;28;20295;-72
2023/06/30 04:41:25;;;;;;;;;;;14.30;99.90;;;;;;8398110;28;20457;-72
2023/06/30 04:45:27;;;;;;;;;;;14.30;99.90;;;;;;8418505;28;20737;-72
2023/06/30 04:49:28;;;;;;;;;;;14.40;99.90;;;;;;8400957;28;19985;-72
2023/06/30 04:53:30;;;;;;;;;;;14.60;99.90;;;;;;8406759;28;19936;-72
2023/06/30 04:57:32;;;;;;;;;;;14.60;99.90;;;;;;8391380;28;19932;-72
2023/06/30 05:01:34;;;;;;;;;;;14.80;99.90;;;;;;8381619;28;19932;-72
2023/06/30 05:05:35;;;;;;;;;;;14.80;99.90;;;;;;8406597;28;19967;-72
2023/06/30 05:09:37;;;;;;;;;;;15.00;99.90;;;;;;8403958;28;19924;-72
2023/06/30 05:13:39;;;;;;;;;;;15.10;99.90;;;;;;8383052;28;20245;-72
2023/06/30 05:17:40;;;;;;;;;;;15.20;99.90;;;;;;8390279;28;20402;-72
2023/06/30 05:21:42;;;;;;;;;;;15.30;99.90;;;;;;8404671;28;19934;-72
2023/06/30 05:25:43;;;;;;;;;;;15.50;99.90;;;;;;8400638;28;19932;-72
2023/06/30 05:29:45;;;;;;;;;;;15.60;99.90;;;;;;8404368;28;19959;-72
2023/06/30 05:33:47;;;;;;;;;;;15.70;99.90;;;;;;8396710;28;19931;-72
2023/06/30 05:37:49;;;;;;;;;;;15.80;99.90;;;;;;8388361;28;19973;-72
2023/06/30 05:41:50;;;;;;;;;;;15.80;99.90;;;;;;8412444;28;19954;-72
2023/06/30 05:45:52;;;;;;;;;;;15.90;99.90;;;;;;8404419;28;21135;-72
2023/06/30 05:49:54;;;;;;;;;;;15.90;99.90;;;;;;8410795;28;20388;-72
2023/06/30 05:53:55;;;;;;;;;;;16.00;99.90;;;;;;8422091;28;19954;-73
2023/06/30 05:57:57;;;;;;;;;;;16.20;99.90;;;;;;8434852;27;19924;-73
2023/06/30 06:01:59;;;;;;;;;;;16.30;99.90;;;;;;8412027;28;19928;-72
2023/06/30 06:06:00;;;;;;;;;;;16.40;99.90;;;;;;8423754;27;19933;-72
2023/06/30 06:10:02;;;;;;;;;;;16.50;99.90;;;;;;8394859;28;19939;-72
2023/06/30 06:14:04;;;;;;;;;;;16.60;99.90;;;;;;8394083;28;19935;-73
2023/06/30 06:18:06;;;;;;;;;;;16.70;99.90;;;;;;8409578;28;20462;-72
2023/06/30 06:22:07;;;;;;;;;;;16.70;99.90;;;;;;8413128;28;19969;-72
2023/06/30 06:26:09;;;;;;;;;;;16.80;99.90;;;;;;8429708;28;19980;-73
2023/06/30 06:30:11;;;;;;;;;;;16.90;99.90;;;;;;8445148;28;19924;-72
2023/06/30 06:34:13;;;;;;;;;;;17.10;99.90;;;;;;8430507;28;19924;-72
2023/06/30 06:38:18;;;;;;;;;;;17.10;99.90;;;;;;8416829;28;19982;-72
2023/06/30 06:42:20;;;;;;;;;;;17.20;99.90;;;;;;8431569;28;19928;-72
2023/06/30 06:46:21;;;;;;;;;;;17.40;99.90;;;;;;8405666;28;19931;-72
2023/06/30 06:50:25;;;;;;;;;;;17.40;99.90;;;;;;8408355;28;20296;-72
2023/06/30 06:54:27;;;;;;;;;;;17.50;99.90;;;;;;8436367;28;19985;-73
2023/06/30 06:58:29;;;;;;;;;;;17.60;99.90;;;;;;8424113;28;19939;-73
2023/06/30 07:02:31;;;;;;;;;;;17.70;99.90;;;;;;8432258;28;19924;-72
2023/06/30 07:06:33;;;;;;;;;;;17.80;99.90;;;;;;8430344;28;19946;-72
2023/06/30 07:10:35;;;;;;;;;;;17.90;99.90;;;;;;8422614;28;19928;-72
2023/06/30 07:14:36;;;;;;;;;;;17.90;99.90;;;;;;8431914;28;19932;-72
2023/06/30 07:18:38;;;;;;;;;;;17.90;99.90;;;;;;8415229;28;19932;-73
2023/06/30 07:22:40;;;;;;;;;;;18.00;99.90;;;;;;8414201;28;19932;-73
2023/06/30 07:26:41;;;;;;;;;;;18.10;99.90;;;;;;8429982;28;19925;-73
2023/06/30 07:30:43;;;;;;;;;;;18.10;99.90;;;;;;8436587;28;19924;-72
2023/06/30 07:34:45;;;;;;;;;;;18.20;99.90;;;;;;8432695;27;20295;-73
2023/06/30 07:38:46;;;;;;;;;;;18.20;99.90;;;;;;8432471;28;19928;-73
2023/06/30 07:42:48;;;;;;;;;;;18.30;99.90;;;;;;8443242;28;19930;-73
2023/06/30 07:46:50;;;;;;;;;;;18.30;99.90;;;;;;8442762;28;19928;-72
2023/06/30 07:50:51;;;;;;;;;;;18.40;99.90;;;;;;8437269;27;19937;-73
2023/06/30 07:55:08;;;;;;;;;;;18.50;99.90;;;;;;8435928;28;19924;-73
2023/06/30 07:59:09;;;;;;;;;;;18.60;99.90;;;;;;8411489;28;20291;-73
2023/06/30 08:03:11;;;;;;;;;;;18.60;99.90;;;;;;8429641;28;19924;-73
2023/06/30 08:07:13;;;;;;;;;;;18.70;99.90;;;;;;8424565;28;19953;-73
2023/06/30 08:11:14;;;;;;;;;;;18.70;99.90;;;;;;8397008;28;20474;-73
2023/06/30 08:15:16;;;;;;;;;;;18.70;99.90;;;;;;8403126;28;20352;-73
2023/06/30 08:19:18;;;;;;;;;;;18.80;99.90;;;;;;8413530;27;19925;-72
2023/06/30 08:23:39;;;;;;;;;;;18.90;99.90;;;;;;8389956;28;19979;-73
2023/06/30 08:27:41;;;;;;;;;;;18.90;99.90;;;;;;8403614;28;19924;-73
2023/06/30 08:31:43;;;;;;;;;;;18.90;99.90;;;;;;8395711;28;19931;-73
2023/06/30 08:35:44;;;;;;;;;;;19.00;99.90;;;;;;8418808;28;19977;-73
2023/06/30 08:39:46;;;;;;;;;;;19.00;99.90;;;;;;8396729;28;19924;-73
2023/06/30 08:43:48;;;;;;;;;;;19.10;99.90;;;;;;8396971;28;19935;-73
2023/06/30 08:47:51;;;;;;;;;;;19.20;99.90;;;;;;8393038;28;20426;-73
2023/06/30 08:51:55;;;;;;;;;;;19.20;99.90;;;;;;8394363;28;20146;-73
2023/06/30 08:55:59;;;;;;;;;;;19.20;99.90;;;;;;8418733;27;20306;-73
2023/06/30 09:00:00;;;;;;;;;;;19.30;99.90;;;;;;8402958;28;19928;-73
2023/06/30 09:04:04;;;;;;;;;;;19.30;99.90;;;;;;8396784;28;19925;-72
2023/06/30 09:08:28;;;;;;;;;;;19.40;99.90;;;;;;8395404;28;19931;-72
2023/06/30 09:12:30;;;;;;;;;;;19.50;99.90;;;;;;8396520;28;19925;-72
2023/06/30 09:16:31;;;;;;;;;;;19.50;99.90;;;;;;8400759;28;19929;-73
2023/06/30 09:20:33;;;;;;;;;;;19.60;99.90;;;;;;8392970;28;20082;-73
2023/06/30 09:24:35;;;;;;;;;;;19.60;99.90;;;;;;8394930;28;19932;-72
2023/06/30 09:28:36;;;;;;;;;;;19.60;99.90;;;;;;8386538;28;19932;-72
2023/06/30 09:32:41;;;;;;;;;;;19.70;99.90;;;;;;8394129;28;19970;-72
2023/06/30 09:36:50;;;;;;;;;;;19.80;99.90;;;;;;8399547;28;20020;-72
2023/06/30 09:40:52;;;;;;;;;;;19.80;99.90;;;;;;8370811;28;19924;-72
2023/06/30 09:44:53;;;;;;;;;;;19.80;99.90;;;;;;8392799;28;19936;-73
2023/06/30 09:48:55;;;;;;;;;;;19.80;99.90;;;;;;8390354;28;19932;-72
2023/06/30 09:52:58;;;;;;;;;;;19.70;99.90;;;;;;8395120;28;19935;-72
2023/06/30 09:57:00;;;;;;;;;;;19.80;99.90;;;;;;8373726;28;19947;-72
2023/06/30 10:01:02;;;;;;;;;;;19.80;99.90;;;;;;8387252;28;20350;-72
2023/06/30 10:05:03;;;;;;;;;;;19.80;99.90;;;;;;8391288;28;19951;-72
2023/06/30 10:09:06;;;;;;;;;;;19.90;99.90;;;;;;8393414;28;19932;-72
2023/06/30 10:13:10;;;;;;;;;;;19.90;99.90;;;;;;8390592;28;19925;-72
2023/06/30 10:17:12;;;;;;;;;;;19.90;99.90;;;;;;8392734;28;19924;-72
2023/06/30 10:21:13;;;;;;;;;;;20.00;99.90;;;;;;8397133;28;19965;-71
2023/06/30 10:25:16;;;;;;;;;;;20.00;99.90;;;;;;8398791;28;20376;-71
2023/06/30 10:29:20;;;;;;;;;;;20.00;99.90;;;;;;8400535;28;19928;-73
2023/06/30 10:33:21;;;;;;;;;;;20.00;99.90;;;;;;8388705;28;19971;-72
2023/06/30 10:37:24;;;;;;;;;;;20.00;99.90;;;;;;8389347;28;19932;-72
2023/06/30 10:41:26;;;;;;;;;;;20.10;99.90;;;;;;8390901;28;19928;-72
2023/06/30 10:45:29;;;;;;;;;;;20.20;99.90;;;;;;8417370;27;19928;-72
2023/06/30 10:49:34;;;;;;;;;;;20.20;99.90;;;;;;8392788;28;19931;-72
2023/06/30 10:53:36;;;;;;;;;;;20.30;99.90;;;;;;8386521;28;20004;-72
2023/06/30 10:57:39;;;;;;;;;;;20.30;99.90;;;;;;8395362;28;19971;-72
2023/06/30 11:02:00;;;;;;;;;;;20.40;99.90;;;;;;8397349;28;19924;-72
2023/06/30 11:06:22;;;;;;;;;;;20.50;99.90;;;;;;8402742;28;19924;-72
2023/06/30 11:10:25;;;;;;;;;;;20.70;99.90;;;;;;8396011;28;19931;-72
2023/06/30 11:14:31;;;;;;;;;;;20.70;99.90;;;;;;8395550;28;20342;-72
2023/06/30 11:18:33;;;;;;;;;;;20.70;99.90;;;;;;8392634;28;19927;-72
2023/06/30 11:22:35;;;;;;;;;;;20.80;99.90;;;;;;8405524;28;19932;-72
2023/06/30 11:26:38;;;;;;;;;;;20.80;99.90;;;;;;8409439;28;19933;-72
2023/06/30 11:30:40;;;;;;;;;;;20.80;99.90;;;;;;8392822;28;19932;-71
2023/06/30 11:34:42;;;;;;;;;;;20.90;99.90;;;;;;8397112;28;20175;-72
2023/06/30 11:38:47;;;;;;;;;;;21.00;99.90;;;;;;8396148;28;19924;-72
2023/06/30 11:42:50;;;;;;;;;;;21.00;99.90;;;;;;8395319;28;19944;-73
2023/06/30 11:46:52;;;;;;;;;;;21.10;99.90;;;;;;8389826;28;19940;-72
2023/06/30 11:50:55;;;;;;;;;;;21.10;99.90;;;;;;8377386;28;20745;-74
2023/06/30 11:54:57;;;;;;;;;;;21.30;99.90;;;;;;8389999;28;19940;-72
2023/06/30 11:58:58;;;;;;;;;;;21.30;99.90;;;;;;8395261;28;19924;-72
2023/06/30 12:03:00;;;;;;;;;;;21.30;99.90;;;;;;8396056;28;19931;-74
2023/06/30 12:07:05;;;;;;;;;;;21.40;99.90;;;;;;8392315;28;19931;-72
2023/06/30 12:11:08;;;;;;;;;;;21.40;99.90;;;;;;8394381;28;19925;-73
2023/06/30 12:15:11;;;;;;;;;;;21.40;99.90;;;;;;8398940;28;19978;-72
2023/06/30 12:19:13;;;;;;;;;;;21.50;99.90;;;;;;8399122;28;19925;-72
2023/06/30 12:23:26;;;;;;;;;;;21.60;99.90;;;;;;8397289;28;20020;-74
2023/06/30 12:27:28;;;;;;;;;;;21.60;99.90;;;;;;8404166;28;19946;-73
2023/06/30 12:31:33;;;;;;;;;;;21.40;99.90;;;;;;8410953;27;19924;-74
2023/06/30 12:35:38;;;;;;;;;;;21.40;99.90;;;;;;8390075;28;19978;-73
2023/06/30 12:39:39;;;;;;;;;;;21.60;99.90;;;;;;8403996;28;19978;-73
2023/06/30 12:43:41;;;;;;;;;;;21.80;99.90;;;;;;8401490;28;19927;-74
2023/06/30 12:47:43;;;;;;;;;;;21.80;99.90;;;;;;8403718;28;19978;-72
2023/06/30 12:51:45;;;;;;;;;;;21.90;99.90;;;;;;8393296;28;19934;-73
2023/06/30 12:55:47;;;;;;;;;;;21.90;99.90;;;;;;8400190;28;19929;-73
2023/06/30 12:59:49;;;;;;;;;;;22.00;99.90;;;;;;8403004;28;19924;-72
2023/06/30 13:03:50;;;;;;;;;;;22.10;99.90;;;;;;8410159;28;19963;-72
2023/06/30 13:07:52;;;;;;;;;;;22.20;99.90;;;;;;8402207;28;19964;-73
2023/06/30 13:11:54;;;;;;;;;;;22.30;99.90;;;;;;8402872;28;19924;-74
2023/06/30 13:15:55;;;;;;;;;;;22.30;99.90;;;;;;8399762;28;19927;-73
2023/06/30 13:19:57;;;;;;;;;;;22.40;99.90;;;;;;8397882;28;20002;-72
2023/06/30 13:23:59;;;;;;;;;;;22.30;99.90;;;;;;8389883;28;19928;-72
2023/06/30 13:28:01;;;;;;;;;;;22.30;99.90;;;;;;8397420;28;19929;-73
2023/06/30 13:32:03;;;;;;;;;;;22.40;99.90;;;;;;8398931;28;19924;-74
2023/06/30 13:36:05;;;;;;;;;;;22.50;99.90;;;;;;8406876;27;19924;-73
2023/06/30 13:40:07;;;;;;;;;;;22.40;99.90;;;;;;8392030;28;19928;-73
2023/06/30 13:44:09;;;;;;;;;;;22.30;99.90;;;;;;8406715;28;20003;-74
2023/06/30 13:48:11;;;;;;;;;;;22.20;99.90;;;;;;8395963;28;19928;-73
2023/06/30 13:52:12;;;;;;;;;;;22.10;99.90;;;;;;8395898;28;19947;-73
2023/06/30 13:56:14;;;;;;;;;;;22.20;99.90;;;;;;8395363;28;20441;-75
2023/06/30 14:00:16;;;;;;;;;;;22.20;99.90;;;;;;8395467;28;19931;-73
2023/06/30 14:04:18;;;;;;;;;;;22.20;99.90;;;;;;8398150;28;19967;-73
2023/06/30 14:08:20;;;;;;;;;;;22.20;99.90;;;;;;8392817;28;19928;-73
2023/06/30 14:12:22;;;;;;;;;;;22.30;99.90;;;;;;8391815;28;19928;-73
2023/06/30 14:16:23;;;;;;;;;;;22.30;99.90;;;;;;8389741;28;19925;-72
2023/06/30 14:20:25;;;;;;;;;;;22.40;99.90;;;;;;8395664;28;20566;-72
2023/06/30 14:24:27;;;;;;;;;;;22.50;99.90;;;;;;8395173;28;20307;-73
2023/06/30 14:28:29;;;;;;;;;;;22.50;99.90;;;;;;8398067;28;19939;-74
2023/06/30 14:32:31;;;;;;;;;;;22.70;99.90;;;;;;8395397;28;20280;-73
2023/06/30 14:36:32;;;;;;;;;;;22.80;99.90;;;;;;8374594;28;19924;-73
2023/06/30 14:40:34;;;;;;;;;;;23.00;99.90;;;;;;8407048;28;19928;-73
2023/06/30 14:44:36;;;;;;;;;;;23.10;99.90;;;;;;8393493;28;19924;-74
2023/06/30 14:48:37;;;;;;;;;;;23.00;99.90;;;;;;8391399;28;19929;-73
2023/06/30 14:52:39;;;;;;;;;;;23.00;99.90;;;;;;8389410;28;19978;-73
2023/06/30 14:56:41;;;;;;;;;;;22.90;99.90;;;;;;8395662;28;19928;-73
2023/06/30 15:00:42;;;;;;;;;;;22.90;99.90;;;;;;8398616;28;19928;-74
2023/06/30 15:04:44;;;;;;;;;;;23.00;99.90;;;;;;8394261;28;19978;-73
2023/06/30 15:08:46;;;;;;;;;;;22.90;99.90;;;;;;8397666;28;19956;-72
2023/06/30 15:12:47;;;;;;;;;;;22.90;99.90;;;;;;8400389;28;20367;-73
2023/06/30 15:16:49;;;;;;;;;;;22.90;99.90;;;;;;8406424;28;20393;-73
2023/06/30 15:20:51;;;;;;;;;;;22.90;99.90;;;;;;8402477;28;19924;-73
2023/06/30 15:24:53;;;;;;;;;;;22.80;99.90;;;;;;8393330;28;19939;-73
2023/06/30 15:28:55;;;;;;;;;;;22.60;99.90;;;;;;8393523;28;19928;-72
2023/06/30 15:32:57;;;;;;;;;;;22.50;99.90;;;;;;8393205;28;19935;-73
2023/06/30 15:36:58;;;;;;;;;;;22.30;99.90;;;;;;8391062;28;20395;-73
2023/06/30 15:41:03;;;;;;;;;;;22.30;99.90;;;;;;8392015;28;19932;-73
2023/06/30 15:45:21;;;;;;;;;;;22.20;99.90;;;;;;8400431;28;19929;-73
2023/06/30 15:49:23;;;;;;;;;;;22.20;99.90;;;;;;8398783;28;20291;-73
2023/06/30 15:53:25;;;;;;;;;;;22.20;99.90;;;;;;8393725;28;19939;-72
2023/06/30 15:57:26;;;;;;;;;;;22.20;99.90;;;;;;8402447;28;20383;-73
2023/06/30 16:01:28;;;;;;;;;;;22.30;99.90;;;;;;8386967;28;19932;-73
2023/06/30 16:05:30;;;;;;;;;;;22.50;99.90;;;;;;8405277;28;19924;-73
2023/06/30 16:09:32;;;;;;;;;;;22.60;99.90;;;;;;8411009;28;19938;-73
2023/06/30 16:13:33;;;;;;;;;;;22.70;99.90;;;;;;8391608;28;19981;-72
2023/06/30 16:17:35;;;;;;;;;;;22.70;99.90;;;;;;8392222;28;19924;-74
2023/06/30 16:21:38;;;;;;;;;;;22.60;99.90;;;;;;8411642;28;20387;-74
2023/06/30 16:25:40;;;;;;;;;;;22.50;99.90;;;;;;8397434;28;20414;-73
2023/06/30 16:29:42;;;;;;;;;;;22.40;99.90;;;;;;8393501;28;20287;-73
2023/06/30 16:33:44;;;;;;;;;;;22.30;99.90;;;;;;8392471;28;20903;-73
2023/06/30 16:37:46;;;;;;;;;;;22.20;99.90;;;;;;8397194;28;19924;-72
2023/06/30 16:41:49;;;;;;;;;;;22.10;99.90;;;;;;8389180;28;19956;-72
2023/06/30 16:45:53;;;;;;;;;;;22.10;99.90;;;;;;8392927;28;19925;-72
2023/06/30 16:49:55;;;;;;;;;;;22.00;99.90;;;;;;8390794;28;20435;-73
2023/06/30 16:53:56;;;;;;;;;;;22.00;99.90;;;;;;8394502;28;19998;-72
2023/06/30 16:57:59;;;;;;;;;;;22.00;99.90;;;;;;8402607;28;19936;-73
2023/06/30 17:02:01;;;;;;;;;;;22.00;99.90;;;;;;8393483;28;20030;-72
2023/06/30 17:06:03;;;;;;;;;;;22.00;99.90;;;;;;8397180;28;19928;-74
2023/06/30 17:10:05;;;;;;;;;;;22.00;99.90;;;;;;8394969;28;20192;-73
2023/06/30 17:14:06;;;;;;;;;;;22.00;99.90;;;;;;8393716;28;19931;-73
2023/06/30 17:18:08;;;;;;;;;;;22.00;99.90;;;;;;8416998;27;19935;-72
2023/06/30 17:22:09;;;;;;;;;;;21.90;99.90;;;;;;8401272;28;19946;-73
2023/06/30 17:26:11;;;;;;;;;;;21.80;99.90;;;;;;8399908;28;19982;-72
2023/06/30 17:30:13;;;;;;;;;;;21.80;99.90;;;;;;8389264;28;19932;-72
2023/06/30 17:34:14;;;;;;;;;;;21.80;99.90;;;;;;8392265;28;19993;-73
2023/06/30 17:38:16;;;;;;;;;;;21.80;99.90;;;;;;8395664;28;19925;-73
2023/06/30 17:42:18;;;;;;;;;;;21.70;99.90;;;;;;8397549;28;20391;-72
2023/06/30 17:46:20;;;;;;;;;;;21.60;99.90;;;;;;8399761;28;20338;-73
2023/06/30 17:50:24;;;;;;;;;;;21.40;99.90;;;;;;8415096;27;19937;-72
2023/06/30 17:54:27;;;;;;;;;;;21.30;99.90;;;;;;8396621;28;20280;-73
2023/06/30 17:58:28;;;;;;;;;;;21.20;99.90;;;;;;8387546;28;20338;-73
2023/06/30 18:02:30;;;;;;;;;;;21.10;99.90;;;;;;8400014;28;19924;-73
2023/06/30 18:06:32;;;;;;;;;;;21.00;99.90;;;;;;8395904;28;20007;-73
2023/06/30 18:10:33;;;;;;;;;;;21.00;99.90;;;;;;8393575;28;19928;-72
2023/06/30 18:14:35;;;;;;;;;;;20.90;99.90;;;;;;8398806;28;19931;-72
2023/06/30 18:18:37;;;;;;;;;;;20.90;99.90;;;;;;8401345;28;19990;-73
2023/06/30 18:22:39;;;;;;;;;;;21.00;99.90;;;;;;8400601;28;19924;-72
2023/06/30 18:26:41;;;;;;;;;;;20.90;99.90;;;;;;8387559;28;19931;-73
2023/06/30 18:30:44;;;;;;;;;;;20.90;99.90;;;;;;8391012;28;20277;-73
2023/06/30 18:34:46;;;;;;;;;;;20.80;99.90;;;;;;8392252;28;20296;-72
2023/06/30 18:38:48;;;;;;;;;;;20.80;99.90;;;;;;8397105;28;19931;-73
2023/06/30 18:42:49;;;;;;;;;;;20.80;99.90;;;;;;8394957;27;20424;-72
2023/06/30 18:46:51;;;;;;;;;;;20.70;99.90;;;;;;8390086;28;19932;-72
2023/06/30 18:50:53;;;;;;;;;;;20.70;99.90;;;;;;8385683;28;19932;-72
2023/06/30 18:54:54;;;;;;;;;;;20.80;99.90;;;;;;8387961;28;19928;-72
2023/06/30 18:58:57;;;;;;;;;;;20.70;99.90;;;;;;8374993;28;19971;-72
2023/06/30 19:02:58;;;;;;;;;;;20.60;99.90;;;;;;8394579;28;20002;-73
2023/06/30 19:07:00;;;;;;;;;;;20.60;99.90;;;;;;8390582;28;20326;-72
2023/06/30 19:11:04;;;;;;;;;;;20.50;99.90;;;;;;8387415;28;20291;-73
2023/06/30 19:15:06;;;;;;;;;;;20.50;99.90;;;;;;8390609;28;19983;-72
2023/06/30 19:19:20;;;;;;;;;;;20.40;99.90;;;;;;8406409;28;19932;-73
2023/06/30 19:23:21;;;;;;;;;;;20.30;99.90;;;;;;8381513;28;19927;-73
2023/06/30 19:27:23;;;;;;;;;;;20.30;99.90;;;;;;8407808;28;19932;-73
2023/06/30 19:31:25;;;;;;;;;;;20.20;99.90;;;;;;8386337;28;20395;-72
2023/06/30 19:35:27;;;;;;;;;;;20.20;99.90;;;;;;8387886;28;19986;-72
2023/06/30 19:39:28;;;;;;;;;;;20.20;99.90;;;;;;8384286;28;19990;-73
2023/06/30 19:43:30;;;;;;;;;;;20.10;99.90;;;;;;8392255;28;19932;-72
2023/06/30 19:47:32;;;;;;;;;;;20.10;99.90;;;;;;8390467;27;19975;-72
2023/06/30 19:51:34;;;;;;;;;;;20.00;99.90;;;;;;8355512;28;19979;-72
2023/06/30 19:55:36;;;;;;;;;;;20.00;99.90;;;;;;8353801;28;19990;-72
2023/06/30 19:59:37;;;;;;;;;;;19.90;99.90;;;;;;8358035;28;19925;-72
2023/06/30 20:03:39;;;;;;;;;;;19.90;99.90;;;;;;8357821;28;19987;-73
2023/06/30 20:07:41;;;;;;;;;;;19.80;99.90;;;;;;8355692;28;20380;-73
2023/06/30 20:11:43;;;;;;;;;;;19.80;99.90;;;;;;8339628;28;19925;-72
2023/06/30 20:15:45;;;;;;;;;;;19.80;99.90;;;;;;8363103;28;19924;-72
2023/06/30 20:19:48;;;;;;;;;;;19.70;99.90;;;;;;8356633;28;20015;-72
2023/06/30 20:23:50;;;;;;;;;;;19.70;99.90;;;;;;8356601;28;19929;-72
2023/06/30 20:27:51;;;;;;;;;;;19.70;99.90;;;;;;8355571;28;19962;-72
2023/06/30 20:31:53;;;;;;;;;;;19.70;99.90;;;;;;8356230;28;19933;-72
2023/06/30 20:35:55;;;;;;;;;;;19.70;99.90;;;;;;8355561;28;19928;-72
2023/06/30 20:39:56;;;;;;;;;;;19.70;99.90;;;;;;8354202;28;19933;-72
2023/06/30 20:43:58;;;;;;;;;;;19.70;99.90;;;;;;8356581;28;20288;-72
2023/06/30 20:48:00;;;;;;;;;;;19.70;99.90;;;;;;8381622;28;19931;-72
2023/06/30 20:52:02;;;;;;;;;;;19.60;99.90;;;;;;8386956;28;20330;-73
2023/06/30 20:56:03;;;;;;;;;;;19.60;99.90;;;;;;8384657;28;20356;-72
2023/06/30 21:00:05;;;;;;;;;;;19.60;99.90;;;;;;8386158;28;19979;-72
2023/06/30 21:04:07;;;;;;;;;;;19.50;99.90;;;;;;8415872;28;19946;-72
2023/06/30 21:08:09;;;;;;;;;;;19.50;99.90;;;;;;8424779;28;20344;-72
2023/06/30 21:12:11;;;;;;;;;;;19.40;99.90;;;;;;8385919;28;19932;-72
2023/06/30 21:16:13;;;;;;;;;;;19.40;99.90;;;;;;8418914;28;19924;-72
2023/06/30 21:20:14;;;;;;;;;;;19.40;99.90;;;;;;8391855;28;20025;-72
2023/06/30 21:24:16;;;;;;;;;;;19.40;99.90;;;;;;8414495;28;19928;-72
2023/06/30 21:28:18;;;;;;;;;;;19.40;99.90;;;;;;8422613;28;19975;-72
2023/06/30 21:32:21;;;;;;;;;;;19.40;99.90;;;;;;8411025;28;19928;-72
2023/06/30 21:36:22;;;;;;;;;;;19.40;99.90;;;;;;8400705;28;19925;-72
2023/06/30 21:40:24;;;;;;;;;;;19.40;99.90;;;;;;8406387;28;20002;-72
2023/06/30 21:44:26;;;;;;;;;;;19.40;99.90;;;;;;8424219;28;19928;-72
2023/06/30 21:48:27;;;;;;;;;;;19.40;99.90;;;;;;8410103;28;20315;-72
2023/06/30 21:52:29;;;;;;;;;;;19.40;99.90;;;;;;8410024;28;19928;-72
2023/06/30 21:56:31;;;;;;;;;;;19.40;99.90;;;;;;8405808;28;19936;-72
2023/06/30 22:00:33;;;;;;;;;;;19.30;99.90;;;;;;8424720;28;19924;-72
2023/06/30 22:04:42;;;;;;;;;;;19.30;99.90;;;;;;8402731;27;19916;-73
2023/06/30 22:08:43;;;;;;;;;;;19.20;99.90;;;;;;8410994;28;20172;-71
2023/06/30 22:12:45;;;;;;;;;;;19.20;99.90;;;;;;8378105;28;19925;-71
2023/06/30 22:16:47;;;;;;;;;;;19.20;99.90;;;;;;8381800;28;19928;-71
2023/06/30 22:20:49;;;;;;;;;;;19.20;99.90;;;;;;8402375;28;19929;-71
2023/06/30 22:24:50;;;;;;;;;;;19.20;99.90;;;;;;8374436;28;19925;-71
2023/06/30 22:28:52;;;;;;;;;;;19.20;99.90;;;;;;8371902;28;19936;-71
2023/06/30 22:32:54;;;;;;;;;;;19.20;99.90;;;;;;8379250;28;19978;-71
2023/06/30 22:36:56;;;;;;;;;;;19.20;99.90;;;;;;8380422;28;19982;-71
2023/06/30 22:40:57;;;;;;;;;;;19.20;99.90;;;;;;8373235;28;19929;-71
2023/06/30 22:45:00;;;;;;;;;;;19.20;99.90;;;;;;8382333;28;20383;-71
2023/06/30 22:49:03;;;;;;;;;;;19.20;99.90;;;;;;8370907;28;19971;-71
2023/06/30 22:53:05;;;;;;;;;;;19.20;99.90;;;;;;8376226;28;19925;-71
2023/06/30 22:57:07;;;;;;;;;;;19.10;99.90;;;;;;8377626;28;19978;-71
2023/06/30 23:01:10;;;;;;;;;;;19.10;99.90;;;;;;8368007;28;19932;-71
2023/06/30 23:05:11;;;;;;;;;;;19.10;99.90;;;;;;8411780;28;20495;-71
2023/06/30 23:09:13;;;;;;;;;;;19.10;99.90;;;;;;8405359;28;19928;-71
2023/06/30 23:13:15;;;;;;;;;;;19.10;99.90;;;;;;8369063;28;19943;-72
2023/06/30 23:17:16;;;;;;;;;;;19.10;99.90;;;;;;8349592;28;19995;-71
2023/06/30 23:21:18;;;;;;;;;;;19.10;99.90;;;;;;8355111;28;20019;-71
2023/06/30 23:25:24;;;;;;;;;;;19.10;99.90;;;;;;8351888;28;19992;-71
2023/06/30 23:29:27;;;;;;;;;;;19.10;99.90;;;;;;8353367;28;19925;-72